Terminal Aerodrome Forecast
Issued by NWS

Home | Current Version | Previous Version | Text Only | Print | Product List | Glossary On
Versions: 1 2 3 4 5 6 7 8 9 10 11 12 13 14 15 16 17 18 19 20 21 22 23 24 25
293
FTUS43 KBIS 231811 AAA
TAFJMS
TAF AMD
KJMS 231811Z 2318/2418 29007KT P6SM SCT008
     FM232100 30009KT P6SM BKN008
     FM240200 30008KT 6SM BR OVC005
     FM240800 27005KT 4SM BR OVC003
     FM241100 24005KT 2SM BR BKN008
     FM241400 21005KT P6SM BKN110=

USA.gov is the U.S. government's official web portal to all federal, state and local government web resources and services.